Terminal Aerodrome Forecast
Issued by NWS

Home | Current Version | Previous Version | Text Only | Print | Product List | Glossary On
Versions: 1 2 3 4 5 6 7 8 9 10 11 12 13 14 15 16 17 18 19 20 21
000
FTUS46 KLOX 282340
TAFSBA
TAF
KSBA 282340Z 2900/2924 21006KT P6SM SKC
     FM290200 VRB05KT P6SM SKC
     FM290500 09006KT P6SM SKC
     FM291200 VRB03KT 5SM BR BKN006
     FM291500 VRB03KT 4SM BR OVC003
     FM291700 18006KT 6SM BR OVC006
     FM291900 20006KT P6SM SCT008
     FM292100 24007KT P6SM SKC=

USA.gov is the U.S. government's official web portal to all federal, state and local government web resources and services.